Flight Track Log - Related Links

Times and Time Zones

All times are in EDT time to prevent confusion due to time zone crossing. See the BAW89 flight status page for this flight to view local times or setup timezone preferences in your user account.

Time Position Orientation Groundspeed Altitude Reporting Facility
EDT Latitude Longitude Course Direction KTS MPH feet Rate Location/Type
Mon 01:20:21 PM 51.4649 -0.4796 271° West 176 203 400  Level FlightAware ADS-B (EGLL / LHR)
Mon 01:20:36 PM 51.4651 -0.5015 272° West 179 206 900 2,143 Climbing FlightAware ADS-B (EGLL / LHR)
Mon 01:20:49 PM 51.4667 -0.5182 292° West 181 208 1,400 1,688 Climbing FlightAware ADS-B
Mon 01:21:08 PM 51.4731 -0.5377 299° West 205 236 1,800 857 Climbing FlightAware ADS-B
Mon 01:21:24 PM 51.4831 -0.5672 298° West 227 261 1,900 1,161 Climbing FlightAware ADS-B
Mon 01:21:39 PM 51.4905 -0.5902 298° West 238 274 2,400 1,818 Climbing FlightAware ADS-B (EGLF / FAB)
Mon 01:21:57 PM 51.5001 -0.6194 298° West 253 291 2,900 2,294 Climbing FlightAware ADS-B (EGLL / LHR)
Mon 01:22:13 PM 51.5078 -0.6429 301° West 258 297 3,700 2,455 Climbing FlightAware ADS-B (EGLF / FAB)
Mon 01:22:19 PM 51.5114 -0.6519 311° West 260 299 3,800 2,000 Climbing FlightAware ADS-B (EGLF / FAB)
Mon 01:22:25 PM 51.5188 -0.6635 323° Northwest 263 303 4,100 3,000 Climbing FlightAware ADS-B
Mon 01:22:33 PM 51.5278 -0.6714 337° Northwest 266 306 4,500 2,571 Climbing FlightAware ADS-B (EGLF / FAB)
Mon 01:22:39 PM 51.5344 -0.6744 348° North 269 310 4,700 2,143 Climbing FlightAware ADS-B (EGLL / LHR)
Mon 01:22:47 PM 51.5454 -0.6755 North 272 313 5,000 2,727 Climbing FlightAware ADS-B
Mon 01:22:50 PM 51.5444 -0.6757 10° North 274 315 5,200 2,400 Climbing FlightAware ADS-B
Mon 01:22:57 PM 51.5560 -0.6722 15° North 276 318 5,400 1,765 Climbing FlightAware ADS-B (EGLF / FAB)
Mon 01:23:07 PM 51.5678 -0.6628 34° Northeast 279 321 5,700 2,129 Climbing FlightAware ADS-B (EGLL / LHR)
Mon 01:23:28 PM 51.5897 -0.6353 39° Northeast 277 319 6,500 2,333 Climbing FlightAware ADS-B
Mon 01:23:43 PM 51.6057 -0.6153 38° Northeast 286 329 7,100 2,400 Climbing FlightAware ADS-B (EGLC / LCY)
Mon 01:23:58 PM 51.6204 -0.5970 38° Northeast 288 331 7,700 2,400 Climbing FlightAware ADS-B (EGLC / LCY)
Mon 01:24:13 PM 51.6367 -0.5766 38° Northeast 292 336 8,300 2,455 Climbing FlightAware ADS-B
Mon 01:24:20 PM 51.6446 -0.5668 39° Northeast 287 330 8,600 2,400 Climbing FlightAware ADS-B
Mon 01:24:28 PM 51.6532 -0.5561 39° Northeast 289 333 8,900 2,211 Climbing FlightAware ADS-B
Mon 01:24:39 PM 51.6648 -0.5414 39° Northeast 290 334 9,300 2,100 Climbing FlightAware ADS-B
Mon 01:24:48 PM 51.6747 -0.5287 40° Northeast 292 336 9,600 2,143 Climbing FlightAware ADS-B
Mon 01:25:07 PM 51.6951 -0.5023 40° Northeast 296 341 10,300 1,737 Climbing FlightAware ADS-B
Mon 01:25:26 PM 51.7129 -0.4788 47° Northeast 321 369 10,700 1,091 Climbing FlightAware ADS-B
Mon 01:25:29 PM 51.7175 -0.4714 48° Northeast 321 369 10,700 600 Level FlightAware ADS-B (EGLF / FAB)
Mon 01:25:36 PM 51.7247 -0.4560 58° Northeast 329 379 10,800 900 Climbing FlightAware ADS-B (EGLC / LCY)
Mon 01:25:49 PM 51.7348 -0.4282 62° Northeast 338 389 11,000 279 Climbing FlightAware ADS-B (EGLL / LHR)
Mon 01:26:19 PM 51.7565 -0.3624 62° Northeast 346 398 11,000  Level FlightAware ADS-B (EGLF / FAB)
Mon 01:26:34 PM 51.7664 -0.3328 63° Northeast 345 397 11,000  Level FlightAware ADS-B
Mon 01:26:51 PM 51.7792 -0.2846 71° East 342 394 11,000  Level FlightAware ADS-B
Mon 01:27:06 PM 51.7862 -0.2520 72° East 346 398 11,000  Level FlightAware ADS-B (EGLF / FAB)
Mon 01:27:10 PM 51.7892 -0.2373 73° East 343 395 11,000  Level FlightAware ADS-B
Mon 01:27:19 PM 51.7937 -0.2153 73° East 344 396 11,000  Level FlightAware ADS-B
Mon 01:27:42 PM 51.8010 -0.1789 73° East 345 397 11,000  Level FlightAware ADS-B (EGLC / LCY)
Mon 01:27:52 PM 51.8080 -0.1342 77° East 348 400 11,000  Level FlightAware ADS-B (EGLF / FAB)
Mon 01:28:22 PM 51.8149 -0.0610 82° East 349 402 11,000 900 Level FlightAware ADS-B
Mon 01:28:52 PM 51.8220 0.0201 82° East 353 406 11,900 1,839 Climbing FlightAware ADS-B
Mon 01:29:24 PM 51.8291 0.1038 82° East 364 419 12,900 2,063 Climbing FlightAware ADS-B
Mon 01:29:56 PM 51.8386 0.1895 78° East 370 426 14,100 2,211 Climbing FlightAware ADS-B
Mon 01:30:02 PM 51.8366 0.1739 80° East 368 423 14,300 2,167 Climbing FlightAware ADS-B (EGLL / LHR)
Mon 01:30:32 PM 51.8501 0.2773 78° East 374 430 15,400 2,364 Climbing FlightAware ADS-B
Mon 01:30:35 PM 51.8518 0.2916 79° East 375 432 15,600 1,714 Climbing FlightAware ADS-B (EGLC / LCY)
Mon 01:30:46 PM 51.8563 0.3262 80° East 374 430 15,800 1,773 Climbing FlightAware ADS-B
Mon 01:31:19 PM 51.8681 0.4170 78° East 381 438 16,900 2,040 Climbing FlightAware ADS-B (EGLC / LCY)
Mon 01:31:36 PM 51.8742 0.4651 80° East 382 440 17,500 1,915 Climbing FlightAware ADS-B
Mon 01:32:06 PM 51.8810 0.5182 78° East 391 450 18,400 1,800 Climbing FlightAware ADS-B
Mon 01:32:36 PM 51.8960 0.6353 79° East 397 457 19,300 1,846 Climbing FlightAware ADS-B
Mon 01:33:11 PM 51.9090 0.7388 79° East 403 464 20,400 1,739 Climbing FlightAware ADS-B
Mon 01:33:45 PM 51.9215 0.8389 79° East 409 471 21,300 1,737 Climbing FlightAware ADS-B
Mon 01:33:49 PM 51.9225 0.8467 78° East 411 473 21,500 2,182 Climbing FlightAware ADS-B
Mon 01:33:56 PM 51.9262 0.8749 79° East 411 473 21,700 1,538 Climbing FlightAware ADS-B
Mon 01:34:28 PM 51.9404 0.9697 76° East 417 480 22,500 1,500 Climbing FlightAware ADS-B
Mon 01:34:44 PM 51.9483 1.0177 76° East 420 483 22,900 1,625 Climbing FlightAware ADS-B
Mon 01:35:16 PM 51.9607 1.0951 76° East 427 491 23,800 933 Climbing FlightAware ADS-B (EGLF / FAB)
Mon 01:35:29 PM 51.9711 1.1597 76° East 432 497 23,600 1,227 Descending FlightAware ADS-B
Mon 01:36:00 PM 51.9842 1.2422 76° East 438 504 24,700 2,154 Climbing FlightAware ADS-B (EGLF / FAB)
Mon 01:36:08 PM 51.9881 1.2664 76° East 441 507 25,000 2,333 Climbing FlightAware ADS-B
Mon 01:36:18 PM 51.9950 1.3105 76° East 444 511 25,400 1,320 Climbing FlightAware ADS-B (EGLF / FAB)
Mon 01:36:58 PM 52.0162 1.4447 76° East 448 516 26,100 955 Climbing FlightAware ADS-B
Mon 01:37:02 PM 52.0176 1.4532 75° East 196 226 26,100 857 Level FlightAware ADS-B (EHGR / GLZ)
Mon 01:37:05 PM 52.0197 1.4668 77° East 450 518 26,200 1,385 Climbing FlightAware ADS-B
Mon 01:37:41 PM 52.0371 1.5783 76° East 454 522 27,000 1,333 Climbing FlightAware ADS-B (EHGR / GLZ)
Mon 01:38:17 PM 52.0559 1.6995 76° East 459 528 27,800 1,364 Climbing FlightAware ADS-B (EGLF / FAB)
Mon 01:38:47 PM 52.0657 1.7630 76° East 463 533 28,500 1,377 Climbing FlightAware ADS-B
Mon 01:39:18 PM 52.0873 1.9031 76° East 466 536 29,200 1,180 Climbing FlightAware ADS-B
Mon 01:39:48 PM 52.1006 1.9907 75° East 470 541 29,700 1,100 Climbing FlightAware ADS-B
Mon 01:40:18 PM 52.1115 2.0476 65° Northeast 483 556 30,300 1,091 Climbing FlightAware ADS-B
Mon 01:40:54 PM 52.1675 2.2264 65° Northeast 492 566 30,900 973 Climbing FlightAware UK
Mon 01:40:55 PM 52.1182 2.0756 59° Northeast 492 566 30,900 1,135 Level FlightAware ADS-B
Mon 01:41:31 PM 52.1786 2.2576 60° Northeast 498 573 31,600 878 Climbing FlightAware ADS-B
Mon 01:41:36 PM 52.2158 2.3625 59° Northeast 498 573 31,500 686 Descending FlightAware UK
Mon 01:42:06 PM 52.2465 2.4497 60° Northeast 504 580 32,000 818 Climbing FlightAware ADS-B
Mon 01:42:42 PM 52.2904 2.5747 60° Northeast 509 586 32,400 632 Climbing FlightAware ADS-B
Mon 01:43:22 PM 52.3269 2.6791 60° Northeast 514 592 32,800 658 Climbing FlightAware ADS-B
Mon 01:43:55 PM 52.3771 2.8228 60° Northeast 520 598 33,200 649 Climbing FlightAware UK
Mon 01:43:59 PM 52.3818 2.8370 61° Northeast 520 598 33,200 649 Level FlightAware ADS-B (EHGR / GLZ)
Mon 01:44:32 PM 52.4165 2.9371 61° Northeast 525 604 33,600 667 Climbing FlightAware ADS-B
Mon 01:45:02 PM 52.4480 3.0284 61° Northeast 528 608 33,900 700 Climbing FlightAware ADS-B
Mon 01:45:32 PM 52.4925 3.1581 61° Northeast 530 610 34,300 900 Climbing FlightAware ADS-B
Mon 01:46:02 PM 52.5288 3.2646 61° Northeast 529 609 34,800 1,810 Climbing FlightAware ADS-B
Mon 01:46:35 PM 52.5674 3.3768 61° Northeast 500 575 36,200 2,250 Climbing FlightAware ADS-B
Mon 01:46:58 PM 52.5928 3.4525 62° Northeast 488 562 36,900 686 Climbing FlightAware ADS-B (EHGR / GLZ)
Mon 01:47:45 PM 52.6443 3.6051 61° Northeast 501 577 37,000 76 Climbing FlightAware ADS-B
Mon 01:48:17 PM 52.6800 3.7143 62° Northeast 507 583 37,000  Level FlightAware ADS-B
Mon 01:48:50 PM 52.7159 3.8278 63° Northeast 509 586 37,000  Level FlightAware ADS-B
Mon 01:49:28 PM 52.7576 3.9595 63° Northeast 511 588 37,000  Level FlightAware ADS-B (EHGR / GLZ)
Mon 01:50:05 PM 52.7982 4.0880 62° Northeast 519 597 37,000  Level FlightAware ADS-B
Mon 01:51:04 PM 52.8644 4.2983 63° Northeast 518 596 37,000  Level FlightAware ADS-B
Mon 01:51:31 PM 52.8812 4.3515 63° Northeast 517 595 37,000  Level FlightAware ADS-B
Mon 01:52:04 PM 52.9300 4.5082 64° Northeast 511 588 37,000  Level FlightAware ADS-B
Mon 01:52:34 PM 52.9627 4.6137 64° Northeast 510 587 37,000  Level FlightAware ADS-B
Mon 01:52:45 PM 52.9729 4.6465 63° Northeast 512 589 37,000  Level FlightAware ADS-B
Mon 01:53:20 PM 53.0108 4.7697 64° Northeast 506 582 37,000  Level FlightAware ADS-B
Mon 01:54:08 PM 53.0641 4.9435 63° Northeast 506 582 37,000  Level FlightAware ADS-B
Mon 01:54:41 PM 53.0967 5.0506 63° Northeast 505 581 37,000  Level FlightAware ADS-B (EHGR / GLZ)
Mon 01:55:12 PM 53.1289 5.1568 63° Northeast 503 579 37,000  Level FlightAware ADS-B (EHGR / GLZ)
Mon 01:55:49 PM 53.1548 5.2430 63° Northeast 501 577 37,000  Level FlightAware ADS-B
Mon 01:56:20 PM 53.1994 5.3913 64° Northeast 495 570 37,000  Level FlightAware ADS-B
Mon 01:57:05 PM 53.2457 5.5463 64° Northeast 496 571 37,000  Level FlightAware ADS-B
Mon 01:57:35 PM 53.2761 5.6490 65° Northeast 497 572 37,000  Level FlightAware ADS-B
Mon 01:58:34 PM 53.3365 5.8538 65° Northeast 497 572 37,000  Level FlightAware ADS-B
Mon 01:59:04 PM 53.3674 5.9593 65° Northeast 499 574 37,000  Level FlightAware ADS-B
Mon 01:59:50 PM 53.4133 6.1169 65° Northeast 492 566 37,000  Level FlightAware ADS-B
Mon 02:00:20 PM 53.4433 6.2205 64° Northeast 492 566 37,000  Level FlightAware ADS-B
Mon 02:00:53 PM 53.4926 6.3916 64° Northeast 492 566 37,000  Level FlightAware ADS-B
Mon 02:01:03 PM 53.5075 6.4437 65° Northeast 492 566 37,000  Level FlightAware ADS-B
Mon 02:01:35 PM 53.5169 6.4767 64° Northeast 491 565 37,000  Level FlightAware ADS-B
Mon 02:02:07 PM 53.5484 6.5891 64° Northeast 492 566 37,000  Level FlightAware UK
Mon 02:02:33 PM 53.5740 6.6773 65° Northeast 492 566 37,000  Level FlightAware ADS-B
Mon 02:03:18 PM 53.6105 6.8061 65° Northeast 493 567 37,000  Level FlightAware ADS-B
Mon 02:03:53 PM 53.6489 6.9433 65° Northeast 493 567 37,000  Level FlightAware ADS-B
Mon 02:04:33 PM 53.7134 7.1741 65° Northeast 492 566 37,000  Level FlightAware ADS-B
Mon 02:05:15 PM 53.7299 7.2338 65° Northeast 492 566 37,000  Level FlightAware ADS-B
Mon 02:05:45 PM 53.7535 7.3192 65° Northeast 492 566 37,000  Level FlightAware ADS-B
Mon 02:06:16 PM 53.7876 7.4435 65° Northeast 491 565 37,000  Level FlightAware ADS-B
Mon 02:07:03 PM 53.8344 7.6149 66° East 490 564 37,000  Level FlightAware ADS-B
Mon 02:07:34 PM 53.8634 7.7213 65° Northeast 494 568 37,000  Level FlightAware ADS-B
Mon 02:07:59 PM 53.8877 7.8112 66° East 492 566 37,000  Level FlightAware ADS-B
Mon 02:08:29 PM 53.9161 7.9167 66° East 492 566 37,000  Level FlightAware ADS-B
Mon 02:09:00 PM 53.9449 8.0245 66° East 494 568 37,000  Level FlightAware ADS-B
Mon 02:09:30 PM 53.9728 8.1287 66° East 493 567 37,000  Level FlightAware ADS-B
Mon 02:09:36 PM 53.9785 8.1504 67° East 490 564 37,000  Level FlightAware ADS-B
Mon 02:10:15 PM 54.0147 8.2866 66° East 491 565 37,000  Level FlightAware ADS-B
Mon 02:10:46 PM 54.0437 8.3969 66° East 492 566 37,000  Level FlightAware ADS-B
Mon 02:11:17 PM 54.0675 8.4878 66° East 492 566 37,000  Level FlightAware ADS-B
Mon 02:11:47 PM 54.1002 8.6127 66° East 492 566 37,000  Level FlightAware ADS-B
Mon 02:12:18 PM 54.1259 8.7119 66° East 494 568 37,000  Level FlightAware ADS-B
Mon 02:13:03 PM 54.1723 8.8799 61° Northeast 496 571 37,000  Level FlightAware ADS-B
Mon 02:13:33 PM 54.2075 8.9824 61° Northeast 496 571 37,000  Level FlightAware ADS-B
Mon 02:14:18 PM 54.2523 9.1298 61° Northeast 494 568 37,000  Level FlightAware ADS-B
Mon 02:14:48 PM 54.2868 9.2302 59° Northeast 497 572 37,000  Level FlightAware ADS-B
Mon 02:16:03 PM 54.3761 9.4874 60° Northeast 492 566 37,000  Level FlightAware ADS-B
Mon 02:16:47 PM 54.4246 9.6314 60° Northeast 491 565 37,000  Level FlightAware ADS-B
Mon 02:17:17 PM 54.4573 9.7294 60° Northeast 494 568 37,000  Level FlightAware ADS-B
Mon 02:18:04 PM 54.5131 9.8984 61° Northeast 495 570 37,000  Level FlightAware ADS-B
Mon 02:18:49 PM 54.5629 10.0495 61° Northeast 495 570 37,000  Level FlightAware ADS-B
Mon 02:19:36 PM 54.6114 10.1978 61° Northeast 496 571 37,000  Level FlightAware ADS-B
Mon 02:20:39 PM 54.6840 10.4206 61° Northeast 496 571 37,000  Level FlightAware ADS-B
Mon 02:21:25 PM 54.7352 10.5793 61° Northeast 491 565 37,000  Level FlightAware ADS-B
Mon 02:22:09 PM 54.7870 10.7408 61° Northeast 491 565 37,000  Level FlightAware ADS-B
Mon 02:22:40 PM 54.8200 10.8457 62° Northeast 493 567 37,000  Level FlightAware ADS-B
Mon 02:23:20 PM 54.8617 10.9801 62° Northeast 494 568 37,000  Level FlightAware ADS-B
Mon 02:23:55 PM 54.9012 11.1074 62° Northeast 494 568 37,000  Level FlightAware ADS-B
Mon 02:24:54 PM 54.9643 11.3120 62° Northeast 495 570 37,000  Level FlightAware ADS-B
Mon 02:25:26 PM 54.9928 11.4047 62° Northeast 496 571 37,000  Level FlightAware ADS-B
Mon 02:26:10 PM 55.0468 11.5820 62° Northeast 496 571 37,000  Level FlightAware ADS-B
Mon 02:26:55 PM 55.0927 11.7337 62° Northeast 497 572 37,000  Level FlightAware ADS-B
Mon 02:27:26 PM 55.1270 11.8456 61° Northeast 500 575 37,000  Level FlightAware ADS-B
Mon 02:27:56 PM 55.1540 11.9302 61° Northeast 501 577 37,000  Level FlightAware ADS-B
Mon 02:28:40 PM 55.2029 12.0840 61° Northeast 499 574 37,000  Level FlightAware ADS-B
Mon 02:29:41 PM 55.2775 12.3228 61° Northeast 500 575 37,000  Level FlightAware ADS-B
Mon 02:30:12 PM 55.3125 12.4360 62° Northeast 502 578 37,000  Level FlightAware ADS-B
Mon 02:30:43 PM 55.3456 12.5432 62° Northeast 503 579 37,000  Level FlightAware ADS-B
Mon 02:31:17 PM 55.3824 12.6636 63° Northeast 499 574 37,000  Level FlightAware ADS-B
Mon 02:31:47 PM 55.4149 12.7700 63° Northeast 499 574 37,000  Level FlightAware ADS-B
Mon 02:32:17 PM 55.4481 12.8803 63° Northeast 500 575 37,000  Level FlightAware ADS-B
Mon 02:32:56 PM 55.4768 12.9748 62° Northeast 505 581 37,000  Level FlightAware ADS-B
Mon 02:33:27 PM 55.5252 13.1362 62° Northeast 506 582 37,000  Level FlightAware ADS-B
Mon 02:33:40 PM 55.5381 13.1789 63° Northeast 502 578 37,000  Level FlightAware ADS-B
Mon 02:34:11 PM 55.5691 13.2822 62° Northeast 507 583 37,000  Level FlightAware ADS-B
Mon 02:35:07 PM 55.5970 13.3759 63° Northeast 509 586 37,000  Level FlightAware ADS-B
Mon 02:37:25 PM 55.7840 14.0150 63° Northeast 510 587 37,000  Level FlightAware ADS-B
Mon 02:38:13 PM 55.8350 14.1922 63° Northeast 511 588 37,000  Level FlightAware ADS-B
Mon 02:52:19 PM 56.6936 17.4041 66° East 508 585 37,000  Level FlightAware ADS-B
Mon 02:53:22 PM 56.7469 17.6199 66° East 504 580 37,000  Level FlightAware ADS-B
Mon 02:57:08 PM 56.9636 18.5184 67° East 501 577 37,000  Level FlightAware ADS-B
Mon 02:57:39 PM 56.9906 18.6332 67° East 498 573 37,000  Level FlightAware ADS-B
Mon 02:58:48 PM 57.0550 18.9090 67° East 494 568 37,000  Level FlightAware ADS-B
Mon 03:00:14 PM 57.0740 18.9907 67° East 498 573 37,000  Level FlightAware ADS-B
Mon 03:02:59 PM 57.2758 19.8829 68° East 496 571 37,000  Level FlightAware ADS-B
Mon 03:03:00 PM 57.1575 19.6225 76° East  Level Estimated
Mon 03:03:29 PM 57.3014 19.9987 68° East 497 572 37,000  Level FlightAware ADS-B
Mon 03:04:46 PM 57.3683 20.3050 68° East 494 568 37,000  Level FlightAware ADS-B
Mon 03:05:19 PM 57.3890 20.4004 68° East 492 566 37,000  Level FlightAware ADS-B
Mon 03:06:16 PM 57.4415 20.6451 68° East 492 566 37,000  Level FlightAware ADS-B
Mon 03:06:37 PM 57.4612 20.7378 69° East 489 563 37,000  Level FlightAware ADS-B
Mon 03:07:10 PM 57.4882 20.8654 69° East 489 563 37,000  Level FlightAware ADS-B
Mon 03:07:55 PM 57.5242 21.0362 69° East 486 559 37,000  Level FlightAware ADS-B
Mon 03:08:27 PM 57.5492 21.1560 69° East 488 562 37,000  Level FlightAware ADS-B
Mon 03:09:09 PM 57.5841 21.3245 69° East 486 559 37,000  Level FlightAware ADS-B
Mon 03:09:40 PM 57.6097 21.4489 69° East 485 558 37,000  Level FlightAware ADS-B
Mon 03:10:20 PM 57.6408 21.6009 69° East 486 559 37,000  Level FlightAware ADS-B
Mon 03:11:00 PM 57.6727 21.7583 69° East 487 560 37,000  Level FlightAware ADS-B
Mon 03:11:38 PM 57.6937 21.8633 69° East 485 558 37,000  Level FlightAware ADS-B
Mon 03:12:08 PM 57.7272 22.0301 70° East 486 559 37,000  Level FlightAware ADS-B
Mon 03:12:39 PM 57.7514 22.1517 70° East 485 558 37,000  Level FlightAware ADS-B
Mon 03:13:18 PM 57.7814 22.3041 70° East 486 559 37,000  Level FlightAware ADS-B
Mon 03:13:50 PM 57.8053 22.4262 70° East 487 560 37,000  Level FlightAware ADS-B
Mon 03:14:24 PM 57.8283 22.5442 70° East 488 562 37,000  Level FlightAware ADS-B
Mon 03:14:59 PM 57.8508 22.6612 70° East 490 564 37,000  Level FlightAware ADS-B
Mon 03:15:32 PM 57.8822 22.8166 68° East 491 565 37,000  Level FlightAware ADS-B
Mon 03:16:11 PM 57.9177 22.9721 67° East 491 565 37,000  Level FlightAware ADS-B
Mon 03:16:48 PM 57.9541 23.1320 67° East 493 567 37,000  Level FlightAware ADS-B
Mon 03:17:27 PM 57.9893 23.2872 67° East 495 570 37,000  Level FlightAware ADS-B
Mon 03:18:19 PM 58.0298 23.4673 67° East 493 567 37,000  Level FlightAware ADS-B
Mon 03:18:54 PM 58.0665 23.6314 67° East 493 567 37,000  Level FlightAware ADS-B
Mon 03:19:28 PM 58.0945 23.7577 68° East 491 565 37,000  Level FlightAware ADS-B
Mon 03:20:00 PM 58.1078 23.8185 68° East 491 565 37,000  Level FlightAware ADS-B
Mon 03:20:49 PM 58.1655 24.0817 68° East 491 565 37,000  Level FlightAware ADS-B
Mon 03:21:29 PM 58.1964 24.2244 68° East 489 563 37,000  Level FlightAware ADS-B
Mon 03:22:00 PM 58.2265 24.3641 68° East 488 562 37,000  Level FlightAware ADS-B
Mon 03:22:40 PM 58.2577 24.5104 68° East 489 563 37,000  Level FlightAware ADS-B
Mon 03:23:18 PM 58.2804 24.6167 68° East 491 565 37,000  Level FlightAware ADS-B
Mon 03:23:49 PM 58.3182 24.7962 68° East 489 563 37,000  Level FlightAware ADS-B
Mon 03:24:25 PM 58.3376 24.8893 68° East 487 560 37,000  Level FlightAware ADS-B
Mon 03:24:57 PM 58.3717 25.0529 68° East 487 560 37,000  Level FlightAware ADS-B
Mon 03:25:27 PM 58.3994 25.1868 69° East 488 562 37,000  Level FlightAware ADS-B
Mon 03:26:16 PM 58.4382 25.3760 69° East 489 563 37,000  Level FlightAware ADS-B
Mon 03:27:15 PM 58.4874 25.6192 69° East 487 560 37,000  Level FlightAware ADS-B
Mon 03:27:51 PM 58.4815 25.5896 69° East 487 560 37,000  Level FlightAware ADS-B
Mon 03:28:22 PM 58.4874 25.6192 69° East 486 559 37,000  Level FlightAware ADS-B
Mon 03:29:38 PM 58.6021 26.1949 69° East 486 559 37,000  Level FlightAware ADS-B
Mon 03:30:19 PM 58.6125 26.2487 69° East 486 559 37,000  Level FlightAware ADS-B
Mon 03:31:11 PM 58.6740 26.5659 70° East 484 557 37,000  Level FlightAware ADS-B
Mon 03:32:14 PM 58.7150 26.7806 70° East 485 558 37,000  Level FlightAware ADS-B
Mon 03:33:05 PM 58.7451 26.9397 70° East 489 563 37,000  Level FlightAware ADS-B
Mon 03:33:39 PM 58.7875 27.1664 70° East 486 559 37,000  Level FlightAware ADS-B
Mon 03:34:21 PM 58.8167 27.3233 70° East 489 563 37,000  Level FlightAware ADS-B
Mon 03:35:39 PM 58.8641 27.6662 79° East 496 571 37,000  Level FlightAware ADS-B
Mon 03:36:42 PM 58.8911 27.9288 79° East 493 567 37,000 17 Level FlightAware ADS-B
Mon 03:39:00 PM 58.9195 28.4945 84° East  Level Estimated
Mon 03:40:00 PM 58.9311 28.7407 85° East  Level Estimated
Mon 03:41:00 PM 58.9422 28.9871 85° East  Level Estimated
Mon 03:42:00 PM 58.9179 28.4617 84° East  Level Estimated
Mon 03:43:00 PM 58.9296 28.7079 85° East  Level Estimated
Mon 03:44:00 PM 58.9407 28.9543 85° East  Level Estimated
Mon 03:45:00 PM 58.9514 29.2008 85° East  Level Estimated
Mon 03:46:00 PM 58.9616 29.4475 85° East  Level Estimated
Mon 03:47:00 PM 58.9714 29.6943 86° East  Level Estimated
Mon 03:48:00 PM 58.9807 29.9413 86° East  Level Estimated
Mon 03:49:00 PM 58.9895 30.1884 86° East  Level Estimated
Mon 03:50:00 PM 58.9979 30.4356 86° East  Level Estimated
Mon 03:51:00 PM 59.0057 30.6829 86° East  Level Estimated
Mon 03:52:00 PM 59.0131 30.9304 87° East  Level Estimated
Mon 03:53:00 PM 59.0201 31.1779 87° East  Level Estimated
Mon 03:54:00 PM 59.0265 31.4256 87° East  Level Estimated
Mon 03:55:00 PM 59.0325 31.6733 87° East  Level Estimated
Mon 03:56:00 PM 59.0380 31.9211 87° East  Level Estimated
Mon 03:57:00 PM 59.0431 32.1690 88° East  Level Estimated
Mon 03:58:00 PM 59.0476 32.4170 88° East  Level Estimated
Mon 03:59:00 PM 59.0518 32.6650 88° East  Level Estimated
Mon 04:00:00 PM 59.0554 32.9131 88° East  Level Estimated
Mon 04:01:00 PM 59.0585 33.1612 88° East  Level Estimated
Mon 04:02:00 PM 59.0612 33.4094 89° East  Level Estimated
Mon 04:03:00 PM 59.0634 33.6576 89° East  Level Estimated
Mon 04:04:00 PM 59.0651 33.9058 89° East  Level Estimated
Mon 04:05:00 PM 59.0664 34.1541 89° East  Level Estimated
Mon 04:06:00 PM 59.0672 34.4023 90° East  Level Estimated
Mon 04:07:00 PM 59.0675 34.6506 90° East  Level Estimated
Mon 04:08:00 PM 59.0673 34.8989 90° East  Level Estimated
Mon 04:09:00 PM 59.0666 35.1472 90° East  Level Estimated
Mon 04:10:00 PM 59.0655 35.3954 90° East  Level Estimated
Mon 04:11:00 PM 59.0639 35.6437 91° East  Level Estimated
Mon 04:12:00 PM 59.0619 35.8919 91° East  Level Estimated
Mon 04:13:00 PM 59.0593 36.1401 91° East  Level Estimated
Mon 04:14:00 PM 59.0563 36.3882 91° East  Level Estimated
Mon 04:15:00 PM 59.0528 36.6363 91° East  Level Estimated
Mon 04:16:00 PM 59.0488 36.8843 92° East  Level Estimated
Mon 04:17:00 PM 59.0444 37.1323 92° East  Level Estimated
Mon 04:18:00 PM 59.0395 37.3802 92° East  Level Estimated
Mon 04:19:00 PM 59.0341 37.6281 92° East  Level Estimated
Mon 04:20:00 PM 59.0283 37.8758 93° East  Level Estimated
Mon 04:21:00 PM 59.0219 38.1235 93° East  Level Estimated
Mon 04:22:00 PM 59.0151 38.3711 93° East  Level Estimated
Mon 04:23:00 PM 59.0079 38.6185 93° East  Level Estimated
Mon 04:24:00 PM 59.0001 38.8659 93° East  Level Estimated
Mon 04:25:00 PM 58.9919 39.1132 94° East  Level Estimated
Mon 04:26:00 PM 58.9832 39.3603 94° East  Level Estimated
Mon 04:27:00 PM 58.9740 39.6073 94° East  Level Estimated
Mon 04:28:00 PM 58.9644 39.8542 94° East  Level Estimated
Mon 04:29:00 PM 58.9543 40.1009 94° East  Level Estimated
Mon 04:30:00 PM 58.9437 40.3475 95° East  Level Estimated
Mon 04:31:00 PM 58.9327 40.5939 95° East  Level Estimated
Mon 04:32:00 PM 58.9212 40.8401 95° East  Level Estimated
Mon 04:33:00 PM 58.9092 41.0863 95° East  Level Estimated
Mon 04:34:00 PM 58.8968 41.3322 95° East  Level Estimated
Mon 04:35:00 PM 58.8839 41.5779 96° East  Level Estimated
Mon 04:36:00 PM 58.8705 41.8235 96° East  Level Estimated
Mon 04:37:00 PM 58.8567 42.0688 96° East  Level Estimated
Mon 04:38:00 PM 58.8424 42.3140 96° East  Level Estimated
Mon 04:39:00 PM 58.8276 42.5589 97° East  Level Estimated
Mon 04:40:00 PM 58.8124 42.8037 97° East  Level Estimated
Mon 04:41:00 PM 58.7967 43.0482 97° East  Level Estimated
Mon 04:42:00 PM 58.7806 43.2925 97° East  Level Estimated
Mon 04:43:00 PM 58.7639 43.5366 97° East  Level Estimated
Mon 04:44:00 PM 58.7469 43.7804 98° East  Level Estimated
Mon 04:45:00 PM 58.7293 44.0240 98° East  Level Estimated
Mon 04:46:00 PM 58.7113 44.2674 98° East  Level Estimated
Mon 04:47:00 PM 58.6929 44.5104 98° East  Level Estimated
Mon 04:48:00 PM 58.6740 44.7533 98° East  Level Estimated
Mon 04:49:00 PM 58.6546 44.9958 99° East  Level Estimated
Mon 04:50:00 PM 58.6348 45.2381 99° East  Level Estimated
Mon 04:51:00 PM 58.6145 45.4801 99° East  Level Estimated
Mon 04:52:00 PM 58.5938 45.7219 99° East  Level Estimated
Mon 04:53:00 PM 58.5726 45.9633 99° East  Level Estimated
Mon 04:54:00 PM 58.5510 46.2045 100° East  Level Estimated
Mon 04:55:00 PM 58.5289 46.4453 100° East  Level Estimated
Mon 04:56:00 PM 58.5063 46.6858 100° East  Level Estimated
Mon 04:57:00 PM 58.4834 46.9261 100° East  Level Estimated
Mon 04:58:00 PM 58.4599 47.1660 100° East  Level Estimated
Mon 04:59:00 PM 58.4360 47.4056 101° East  Level Estimated
Mon 05:00:00 PM 58.4117 47.6448 101° East  Level Estimated
Mon 05:01:00 PM 58.3869 47.8838 101° East  Level Estimated
Mon 05:02:00 PM 58.3617 48.1223 101° East  Level Estimated
Mon 05:03:00 PM 58.3361 48.3606 101° East  Level Estimated
Mon 05:04:00 PM 58.3100 48.5985 102° East  Level Estimated
Mon 05:05:00 PM 58.2834 48.8360 102° East  Level Estimated
Mon 05:06:00 PM 58.2564 49.0732 102° East  Level Estimated
Mon 05:07:00 PM 58.2292 49.3088 102° East  Level Estimated
Mon 05:08:00 PM 58.2014 49.5440 103° East  Level Estimated
Mon 05:09:00 PM 58.1733 49.7789 103° East  Level Estimated
Mon 05:10:00 PM 58.1447 50.0134 103° East  Level Estimated
Mon 05:11:00 PM 58.1157 50.2476 103° East  Level Estimated
Mon 05:12:00 PM 58.0863 50.4813 103° East  Level Estimated
Mon 05:13:00 PM 58.0564 50.7146 104° East  Level Estimated
Mon 05:14:00 PM 58.0261 50.9476 104° East  Level Estimated
Mon 05:15:00 PM 57.9954 51.1802 104° East  Level Estimated
Mon 05:16:00 PM 57.9643 51.4123 104° East  Level Estimated
Mon 05:17:00 PM 57.9327 51.6441 104° East  Level Estimated
Mon 05:18:00 PM 57.9007 51.8754 104° East  Level Estimated
Mon 05:19:00 PM 57.8684 52.1063 105° East  Level Estimated
Mon 05:20:00 PM 57.8355 52.3369 105° East  Level Estimated
Mon 05:21:00 PM 57.8023 52.5670 105° East  Level Estimated
Mon 05:22:00 PM 57.7687 52.7966 105° East  Level Estimated
Mon 05:23:00 PM 57.7346 53.0258 105° East  Level Estimated
Mon 05:24:00 PM 57.7001 53.2547 106° East  Level Estimated
Mon 05:25:00 PM 57.6652 53.4830 106° East  Level Estimated
Mon 05:26:00 PM 57.6299 53.7109 106° East  Level Estimated
Mon 05:27:00 PM 57.5942 53.9384 106° East  Level Estimated
Mon 05:28:00 PM 57.5581 54.1654 106° East  Level Estimated
Mon 05:29:00 PM 57.5216 54.3920 107° East  Level Estimated
Mon 05:30:00 PM 57.4846 54.6181 107° East  Level Estimated
Mon 05:31:00 PM 57.4473 54.8438 107° East  Level Estimated
Mon 05:32:00 PM 57.4096 55.0690 107° East  Level Estimated
Mon 05:33:00 PM 57.3714 55.2937 107° East  Level Estimated
Mon 05:33:25 PM 57.7919 58.5360 103° East 529 609 39,000  Level FlightAware ADS-B (USTR / TJM)
Mon 05:33:42 PM 57.7808 58.6268 102° East 529 609 39,000  Level FlightAware ADS-B (USTR / TJM)
Mon 05:34:05 PM 57.7708 58.7077 103° East 529 609 39,000  Level FlightAware ADS-B (USTR / TJM)
Mon 05:34:10 PM 57.7660 58.7468 103° East 528 608 39,000  Level FlightAware ADS-B (USTR / TJM)
Mon 05:34:44 PM 57.7466 58.9018 103° East 526 605 39,000  Level FlightAware ADS-B (USTR / TJM)
Mon 05:34:45 PM 57.7471 58.8974 103° East 527 606 39,000  Level FlightAware ADS-B (USTR / TJM)
Mon 05:35:14 PM 57.7304 59.0302 103° East 527 606 39,000  Level FlightAware ADS-B (USTR / TJM)
Mon 05:35:24 PM 57.7250 59.0735 103° East 528 608 39,000  Level FlightAware ADS-B (USTR / TJM)
Mon 05:35:44 PM 57.7136 59.1638 103° East 528 608 39,000  Level FlightAware ADS-B (USTR / TJM)
Mon 05:36:05 PM 57.7019 59.2558 103° East 527 606 39,000  Level FlightAware ADS-B (USTR / TJM)
Mon 05:36:14 PM 57.6967 59.2964 103° East 527 606 39,000  Level FlightAware ADS-B (USTR / TJM)
Mon 05:36:44 PM 57.6797 59.4290 103° East 528 608 39,000  Level FlightAware ADS-B (USTR / TJM)
Mon 05:36:45 PM 57.6844 59.3927 104° East 529 609 39,000  Level FlightAware ADS-B (USTR / TJM)
Mon 05:37:14 PM 57.6649 59.5442 103° East 530 610 39,000  Level FlightAware ADS-B (USTR / TJM)
Mon 05:37:25 PM 57.6564 59.6098 104° East 531 611 39,000  Level FlightAware ADS-B (USTR / TJM)
Mon 05:37:45 PM 57.6448 59.6985 103° East 530 610 39,000  Level FlightAware ADS-B (USTR / TJM)
Mon 05:38:13 PM 57.6280 59.8261 103° East 531 611 39,000  Level FlightAware ADS-B (USTR / TJM)
Mon 05:38:44 PM 57.6100 59.9618 103° East 531 611 39,000  Level FlightAware ADS-B (USTR / TJM)
Mon 05:39:14 PM 57.5917 60.0983 104° East 531 611 39,000  Level FlightAware ADS-B (USTR / TJM)
Mon 05:39:25 PM 57.5883 60.1231 104° East 532 612 39,000  Level FlightAware ADS-B (USTR / TJM)
Mon 05:39:44 PM 57.5743 60.2266 104° East 531 611 39,000  Level FlightAware ADS-B (USTR / TJM)
Mon 05:40:05 PM 57.5618 60.3185 104° East 530 610 39,000  Level FlightAware ADS-B (USTR / TJM)
Mon 05:40:15 PM 57.5562 60.3589 104° East 529 609 39,000  Level FlightAware ADS-B (USTR / TJM)
Mon 05:40:44 PM 57.5376 60.4942 104° East 528 608 39,000  Level FlightAware ADS-B (USTR / TJM)
Mon 05:41:14 PM 57.5200 60.6206 104° East 529 609 39,000  Level FlightAware ADS-B (USTR / TJM)
Mon 05:41:24 PM 57.5137 60.6663 104° East 530 610 39,000  Level FlightAware ADS-B (USTR / TJM)
Mon 05:41:44 PM 57.5013 60.7580 104° East 529 609 39,000  Level FlightAware ADS-B (USTR / TJM)
Mon 05:42:05 PM 57.4926 60.8223 104° East 530 610 39,000  Level FlightAware ADS-B (USTR / TJM)
Mon 05:42:14 PM 57.4844 60.8830 104° East 529 609 39,000  Level FlightAware ADS-B (USTR / TJM)
Mon 05:42:44 PM 57.4660 61.0183 104° East 529 609 39,000  Level FlightAware ADS-B (USTR / TJM)
Mon 05:42:45 PM 57.4657 61.0210 104° East 529 609 39,000  Level FlightAware ADS-B (USTR / TJM)
Mon 05:43:14 PM 57.4477 61.1516 104° East 528 608 39,000  Level FlightAware ADS-B (USTR / TJM)
Mon 05:43:25 PM 57.4409 61.2007 105° East 529 609 39,000  Level FlightAware ADS-B (USTR / TJM)
Mon 05:43:45 PM 57.4291 61.2847 104° East 528 608 39,000  Level FlightAware ADS-B (USTR / TJM)
Mon 05:44:05 PM 57.4167 61.3729 105° East 528 608 39,000  Level FlightAware ADS-B (USTR / TJM)
Mon 05:44:14 PM 57.4111 61.4122 104° East 528 608 39,000  Level FlightAware ADS-B (USTR / TJM)
Mon 05:44:45 PM 57.3919 61.5475 104° East 528 608 39,000  Level FlightAware ADS-B (USTR / TJM)
Mon 05:45:14 PM 57.3737 61.6747 104° East 527 606 39,000  Level FlightAware ADS-B (USTR / TJM)
Mon 05:45:25 PM 57.3669 61.7216 105° East 528 608 39,000  Level FlightAware ADS-B (USTR / TJM)
Mon 05:45:44 PM 57.3550 61.8042 105° East 527 606 39,000  Level FlightAware ADS-B (USTR / TJM)
Mon 05:46:04 PM 57.3444 61.8854 101° East 526 605 39,000  Level FlightAware ADS-B (USTR / TJM)
Mon 05:46:14 PM 57.3392 61.9392 99° East 525 604 39,000  Level FlightAware ADS-B (USTR / TJM)
Mon 05:46:44 PM 57.3318 62.0730 93° East 526 605 39,000  Level FlightAware ADS-B (USTR / TJM)
Mon 05:47:14 PM 57.3273 62.2056 93° East 526 605 39,000  Level FlightAware ADS-B (USTR / TJM)
Mon 05:47:24 PM 57.3257 62.2477 94° East 526 605 39,000  Level FlightAware ADS-B (USTR / TJM)
Mon 05:47:44 PM 57.3224 62.3389 93° East 526 605 39,000  Level FlightAware ADS-B (USTR / TJM)
Mon 05:48:05 PM 57.3200 62.4051 94° East 527 606 39,000  Level FlightAware ADS-B (USTR / TJM)
Mon 05:48:14 PM 57.3173 62.4759 94° East 527 606 39,000  Level FlightAware ADS-B (USTR / TJM)
Mon 05:48:43 PM 57.3123 62.6061 94° East 528 608 39,000  Level FlightAware ADS-B (USTR / TJM)
Mon 05:48:45 PM 57.3121 62.6107 94° East 528 608 39,000  Level FlightAware ADS-B (USTR / TJM)
Mon 05:49:14 PM 57.3069 62.7460 94° East 527 606 39,000  Level FlightAware ADS-B (USTR / TJM)
Mon 05:49:24 PM 57.3051 62.7890 94° East 528 608 39,000  Level FlightAware ADS-B (USTR / TJM)
Mon 05:49:44 PM 57.3016 62.8751 94° East 528 608 39,000  Level FlightAware ADS-B (USTR / TJM)
Mon 05:50:05 PM 57.2977 62.9712 94° East 529 609 39,000  Level FlightAware ADS-B (USTR / TJM)
Mon 05:50:14 PM 57.2960 63.0106 94° East 528 608 39,000  Level FlightAware ADS-B (USTR / TJM)
Mon 05:50:43 PM 57.2905 63.1454 94° East 529 609 39,000  Level FlightAware ADS-B (USTR / TJM)
Mon 05:50:45 PM 57.2910 63.1319 94° East 529 609 39,000  Level FlightAware ADS-B (USTR / TJM)
Mon 05:51:14 PM 57.2852 63.2822 94° East 530 610 39,000  Level FlightAware ADS-B (USTR / TJM)
Mon 05:51:25 PM 57.2834 63.3245 94° East 530 610 39,000  Level FlightAware ADS-B (USTR / TJM)
Mon 05:51:44 PM 57.2798 63.4135 94° East 530 610 39,000  Level FlightAware ADS-B (USTR / TJM)
Mon 05:52:05 PM 57.2763 63.4973 94° East 531 611 39,000  Level FlightAware ADS-B (USTR / TJM)
Mon 05:52:13 PM 57.2742 63.5477 94° East 530 610 39,000  Level FlightAware ADS-B (USTR / TJM)
Mon 05:52:44 PM 57.2680 63.6902 94° East 531 611 39,000  Level FlightAware ADS-B (USTR / TJM)
Mon 05:52:45 PM 57.2690 63.6676 95° East 532 612 39,000  Level FlightAware ADS-B (USTR / TJM)
Mon 05:53:14 PM 57.2617 63.8245 95° East 531 611 39,000  Level FlightAware ADS-B (USTR / TJM)
Mon 05:53:25 PM 57.2610 63.8380 96° East 531 611 39,000  Level FlightAware ADS-B (USTR / TJM)
Mon 05:53:44 PM 57.2561 63.9243 96° East 532 612 39,000  Level FlightAware ADS-B (USTR / TJM)
Mon 05:54:14 PM 57.2462 64.0881 96° East 533 613 39,000  Level FlightAware ADS-B (USTR / TJM)
Mon 05:54:25 PM 57.2430 64.1413 96° East 533 613 39,000  Level FlightAware ADS-B (USTR / TJM)
Mon 05:54:33 PM 57.2408 64.1773 96° East 533 613 39,000  Level FlightAware ADS-B (USTR / TJM)
Mon 05:55:42 PM 57.2223 64.4825 96° East 534 615 39,000  Level FlightAware ADS-B (USTR / TJM)
Mon 05:56:05 PM 57.2155 64.5925 97° East 535 616 39,000  Level FlightAware ADS-B (USTR / TJM)
Mon 05:56:13 PM 57.2133 64.6286 96° East 534 615 39,000  Level FlightAware ADS-B (USTR / TJM)
Mon 05:56:45 PM 57.2042 64.7729 96° East 534 615 39,000  Level FlightAware ADS-B (USTR / TJM)
Mon 05:57:14 PM 57.1959 64.9037 96° East 534 615 39,000  Level FlightAware ADS-B (USTR / TJM)
Mon 05:57:25 PM 57.1953 64.9127 97° East 535 616 39,000  Level FlightAware ADS-B (USTR / TJM)
Mon 05:57:32 PM 57.1914 64.9723 96° East 535 616 39,000  Level FlightAware ADS-B (USTR / TJM)
Mon 05:58:15 PM 57.1780 65.1766 97° East 537 618 39,000  Level FlightAware ADS-B (USTR / TJM)
Mon 05:58:23 PM 57.1756 65.2118 97° East 536 617 39,000  Level FlightAware ADS-B (USTR / TJM)
Mon 05:58:42 PM 57.1697 65.2994 97° East 536 617 39,000  Level FlightAware ADS-B (USTR / TJM)
Mon 05:59:07 PM 57.1651 65.3671 96° East 535 616 39,000  Level FlightAware ADS-B (USTR / TJM)
Mon 05:59:34 PM 57.1547 65.5335 96° East 537 618 39,000  Level FlightAware ADS-B (USTR / TJM)
Mon 06:00:11 PM 57.1478 65.6423 96° East 537 618 39,000  Level FlightAware ADS-B (USTR / TJM)
Mon 06:00:38 PM 57.1361 65.8217 96° East 537 618 39,000  Level FlightAware ADS-B (USTR / TJM)
Mon 06:01:01 PM 57.1290 65.9286 97° East 538 619 39,000  Level FlightAware ADS-B (USTR / TJM)
Mon 06:01:13 PM 57.1252 65.9838 97° East 538 619 39,000  Level FlightAware ADS-B (USTR / TJM)
Mon 06:01:43 PM 57.1161 66.1169 97° East 539 620 39,000  Level FlightAware ADS-B (USTR / TJM)
Mon 06:02:04 PM 57.1094 66.2138 97° East 539 620 39,000  Level FlightAware ADS-B (USTR / TJM)
Mon 06:02:14 PM 57.1067 66.2538 97° East 539 620 39,000  Level FlightAware ADS-B (USTR / TJM)
Mon 06:02:44 PM 57.0970 66.3913 97° East 538 619 39,000  Level FlightAware ADS-B (USTR / TJM)
Mon 06:03:12 PM 57.0876 66.5222 97° East 537 618 39,000  Level FlightAware ADS-B (USTR / TJM)
Mon 06:03:24 PM 57.0836 66.5772 98° East 537 618 39,000  Level FlightAware ADS-B (USTR / TJM)
Mon 06:03:43 PM 57.0795 66.6350 97° East 537 618 39,000  Level FlightAware ADS-B (USTR / TJM)
Mon 06:04:04 PM 57.0721 66.7342 98° East 539 620 39,000  Level FlightAware ADS-B (USTR / TJM)
Mon 06:04:13 PM 57.0672 66.8012 97° East 539 620 39,000  Level FlightAware ADS-B (USTR / TJM)
Mon 06:04:44 PM 57.0568 66.9388 97° East 540 621 39,000  Level FlightAware ADS-B (USTR / TJM)
Mon 06:04:45 PM 57.0572 66.9343 98° East 540 621 39,000  Level FlightAware ADS-B (USTR / TJM)
Mon 06:05:14 PM 57.0453 67.0762 99° East 539 620 39,000  Level FlightAware ADS-B (USTR / TJM)
Mon 06:05:25 PM 57.0415 67.1204 99° East 539 620 39,000  Level FlightAware ADS-B (USTR / TJM)
Mon 06:05:42 PM 57.0343 67.2014 99° East 539 620 39,000  Level FlightAware ADS-B (USTR / TJM)
Mon 06:06:05 PM 57.0252 67.3037 99° East 538 619 39,000  Level FlightAware ADS-B (USTR / TJM)
Mon 06:06:14 PM 57.0213 67.3477 99° East 536 617 39,000  Level FlightAware ADS-B (USTR / TJM)
Mon 06:06:44 PM 57.0094 67.4812 99° East 537 618 39,000  Level FlightAware ADS-B (USTR / TJM)
Mon 06:07:15 PM 56.9976 67.6131 99° East 538 619 39,000  Level FlightAware ADS-B (USTR / TJM)
Mon 06:07:24 PM 56.9938 67.6552 99° East 538 619 39,000  Level FlightAware ADS-B (USTR / TJM)
Mon 06:07:44 PM 56.9854 67.7476 99° East 537 618 39,000  Level FlightAware ADS-B (USTR / TJM)
Mon 06:08:04 PM 56.9789 67.8182 100° East 536 617 39,000  Level FlightAware ADS-B (USTR / TJM)
Mon 06:08:14 PM 56.9731 67.8816 99° East 536 617 39,000  Level FlightAware ADS-B (USTR / TJM)
Mon 06:08:44 PM 56.9607 68.0163 99° East 534 615 39,000  Level FlightAware ADS-B (USTR / TJM)
Mon 06:08:45 PM 56.9608 68.0146 100° East 535 616 39,000  Level FlightAware ADS-B (USTR / TJM)
Mon 06:09:14 PM 56.9481 68.1501 99° East 530 610 39,000  Level FlightAware ADS-B (USTR / TJM)
Mon 06:09:25 PM 56.9438 68.1951 100° East 531 611 39,000  Level FlightAware ADS-B (USTR / TJM)
Mon 06:09:44 PM 56.9356 68.2816 99° East 531 611 39,000  Level FlightAware ADS-B (USTR / TJM)
Mon 06:10:04 PM 56.9275 68.3654 100° East 532 612 39,000  Level FlightAware ADS-B (USTR / TJM)
Mon 06:10:14 PM 56.9228 68.4140 99° East 531 611 39,000  Level FlightAware ADS-B (USTR / TJM)
Mon 06:10:44 PM 56.9098 68.5482 100° East 530 610 39,000  Level FlightAware ADS-B (USTR / TJM)
Mon 06:11:14 PM 56.8970 68.6772 100° East 528 608 39,000  Level FlightAware ADS-B (USTR / TJM)
Mon 06:11:25 PM 56.8927 68.7210 100° East 529 609 39,000  Level FlightAware ADS-B (USTR / TJM)
Mon 06:11:44 PM 56.8837 68.8106 100° East 529 609 39,000  Level FlightAware ADS-B (USTR / TJM)
Mon 06:12:05 PM 56.8745 68.9032 100° East 530 610 39,000  Level FlightAware ADS-B (USTR / TJM)
Mon 06:12:14 PM 56.8704 68.9428 100° East 529 609 39,000  Level FlightAware ADS-B (USTR / TJM)
Mon 06:12:44 PM 56.8569 69.0761 100° East 529 609 39,000  Level FlightAware ADS-B (USTR / TJM)
Mon 06:12:45 PM 56.8591 69.0550 100° East 530 610 39,000  Level FlightAware ADS-B (USTR / TJM)
Mon 06:13:14 PM 56.8450 69.1911 100° East 529 609 39,000  Level FlightAware ADS-B (USTR / TJM)
Mon 06:13:25 PM 56.8385 69.2534 100° East 530 610 39,000  Level FlightAware ADS-B (USTR / TJM)
Mon 06:13:44 PM 56.8300 69.3350 100° East 530 610 39,000  Level FlightAware ADS-B (USTR / TJM)
Mon 06:13:59 PM 56.8240 69.3920 100° East 530 610 39,000  Level FlightAware ADS-B (USTR / TJM)
Mon 06:14:44 PM 56.8023 69.5967 100° East 529 609 39,000  Level FlightAware ADS-B (USTR / TJM)
Mon 06:14:45 PM 56.8028 69.5924 101° East 530 610 39,000  Level FlightAware ADS-B (USTR / TJM)
Mon 06:14:50 PM 56.8014 69.6055 100° East 529 609 39,000  Level FlightAware ADS-B (USTR / TJM)
Mon 06:17:00 PM 56.6506 70.0248 123° Southeast  Level Estimated
Mon 06:18:00 PM 56.5805 70.2172 123° Southeast  Level Estimated
Mon 06:19:00 PM 56.5101 70.4089 124° Southeast  Level Estimated
Mon 06:20:00 PM 56.4394 70.5999 124° Southeast  Level Estimated
Mon 06:21:00 PM 56.3685 70.7902 124° Southeast  Level Estimated
Mon 06:22:00 PM 56.2972 70.9798 124° Southeast  Level Estimated
Mon 06:23:00 PM 56.2256 71.1686 124° Southeast  Level Estimated
Mon 06:24:00 PM 56.1538 71.3568 124° Southeast  Level Estimated
Mon 06:25:00 PM 56.0817 71.5442 125° Southeast  Level Estimated
Mon 06:26:00 PM 56.0093 71.7310 125° Southeast  Level Estimated
Mon 06:27:00 PM 55.9366 71.9170 125° Southeast  Level Estimated
Mon 06:28:00 PM 55.8636 72.1024 125° Southeast  Level Estimated
Mon 06:29:00 PM 55.7904 72.2870 125° Southeast  Level Estimated
Mon 06:30:00 PM 55.7169 72.4710 125° Southeast  Level Estimated
Mon 06:31:00 PM 55.6431 72.6542 125° Southeast  Level Estimated
Mon 06:32:00 PM 55.5690 72.8368 126° Southeast  Level Estimated
Mon 06:33:00 PM 55.4947 73.0187 126° Southeast  Level Estimated
Mon 06:34:00 PM 55.4201 73.1999 126° Southeast  Level Estimated
Mon 06:35:00 PM 55.3452 73.3804 126° Southeast  Level Estimated
Mon 06:36:00 PM 55.2701 73.5602 126° Southeast  Level Estimated
Mon 06:37:00 PM 55.1947 73.7394 126° Southeast  Level Estimated
Mon 06:38:00 PM 55.1190 73.9179 127° Southeast  Level Estimated
Mon 06:39:00 PM 55.0431 74.0957 127° Southeast  Level Estimated
Mon 06:40:00 PM 54.9669 74.2728 127° Southeast  Level Estimated
Mon 06:41:00 PM 54.8905 74.4492 127° Southeast  Level Estimated
Mon 06:42:00 PM 54.8138 74.6250 127° Southeast  Level Estimated
Mon 06:43:00 PM 54.7369 74.8002 127° Southeast  Level Estimated
Mon 06:44:00 PM 54.6597 74.9746 127° Southeast  Level Estimated
Mon 06:45:00 PM 54.5822 75.1484 128° Southeast  Level Estimated
Mon 06:46:00 PM 54.5045 75.3215 128° Southeast  Level Estimated
Mon 06:47:00 PM 54.4266 75.4940 128° Southeast  Level Estimated
Mon 06:48:00 PM 54.3484 75.6658 128° Southeast  Level Estimated
Mon 06:49:00 PM 54.2700 75.8370 128° Southeast  Level Estimated
Mon 06:50:00 PM 54.1913 76.0075 128° Southeast  Level Estimated
Mon 06:51:00 PM 54.1124 76.1773 128° Southeast  Level Estimated
Mon 06:52:00 PM 54.0333 76.3466 128° Southeast  Level Estimated
Mon 06:53:00 PM 53.9539 76.5151 129° Southeast  Level Estimated
Mon 06:54:00 PM 53.8743 76.6831 129° Southeast  Level Estimated
Mon 06:55:00 PM 53.7944 76.8503 129° Southeast  Level Estimated
Mon 06:56:00 PM 53.7144 77.0170 129° Southeast  Level Estimated
Mon 06:57:00 PM 53.6340 77.1830 129° Southeast  Level Estimated
Mon 06:58:00 PM 53.5535 77.3484 129° Southeast  Level Estimated
Mon 06:59:00 PM 53.4727 77.5132 129° Southeast  Level Estimated
Mon 07:00:00 PM 53.3917 77.6773 130° Southeast  Level Estimated
Mon 07:01:00 PM 53.3105 77.8408 130° Southeast  Level Estimated
Mon 07:02:00 PM 53.2291 78.0037 130° Southeast  Level Estimated
Mon 07:03:00 PM 53.1474 78.1660 130° Southeast  Level Estimated
Mon 07:04:00 PM 53.0655 78.3276 130° Southeast  Level Estimated
Mon 07:05:00 PM 52.9834 78.4886 130° Southeast  Level Estimated
Mon 07:06:00 PM 52.9011 78.6491 130° Southeast  Level Estimated
Mon 07:07:00 PM 52.8186 78.8089 130° Southeast  Level Estimated
Mon 07:08:00 PM 52.7359 78.9681 131° Southeast  Level Estimated
Mon 07:09:00 PM 52.6529 79.1267 131° Southeast  Level Estimated
Mon 07:10:00 PM 52.5697 79.2847 131° Southeast  Level Estimated
Mon 07:11:00 PM 52.4863 79.4421 131° Southeast  Level Estimated
Mon 07:12:00 PM 52.4028 79.5989 131° Southeast  Level Estimated
Mon 07:13:00 PM 52.3190 79.7551 131° Southeast  Level Estimated
Mon 07:14:00 PM 52.2350 79.9108 131° Southeast  Level Estimated
Mon 07:15:00 PM 52.1508 80.0658 131° Southeast  Level Estimated
Mon 07:16:00 PM 52.0664 80.2202 132° Southeast  Level Estimated
Mon 07:17:00 PM 51.9818 80.3741 132° Southeast  Level Estimated
Mon 07:18:00 PM 51.8969 80.5274 132° Southeast  Level Estimated
Mon 07:19:00 PM 51.8120 80.6801 132° Southeast  Level Estimated
Mon 07:20:00 PM 51.7267 80.8322 132° Southeast  Level Estimated
Mon 07:21:00 PM 51.6413 80.9838 132° Southeast  Level Estimated
Mon 07:22:00 PM 51.5558 81.1348 132° Southeast  Level Estimated
Mon 07:23:00 PM 51.4700 81.2852 132° Southeast  Level Estimated
Mon 07:24:00 PM 51.3840 81.4350 133° Southeast  Level Estimated
Mon 07:25:00 PM 51.2978 81.5843 133° Southeast  Level Estimated
Mon 07:26:00 PM 51.2115 81.7330 133° Southeast  Level Estimated
Mon 07:27:00 PM 51.1249 81.8812 133° Southeast  Level Estimated
Mon 07:28:00 PM 51.0382 82.0288 133° Southeast  Level Estimated
Mon 07:29:00 PM 50.9513 82.1759 133° Southeast  Level Estimated
Mon 07:30:00 PM 50.8642 82.3224 133° Southeast  Level Estimated
Mon 07:31:00 PM 50.7769 82.4684 133° Southeast  Level Estimated
Mon 07:32:00 PM 50.6894 82.6138 133° Southeast  Level Estimated
Mon 07:33:00 PM 50.6018 82.7587 134° Southeast  Level Estimated
Mon 07:34:00 PM 50.5140 82.9030 134° Southeast  Level Estimated
Mon 07:35:00 PM 50.4260 83.0469 134° Southeast  Level Estimated
Mon 07:36:00 PM 50.3378 83.1901 134° Southeast  Level Estimated
Mon 07:37:00 PM 50.2495 83.3329 134° Southeast  Level Estimated
Mon 07:38:00 PM 50.1609 83.4751 134° Southeast  Level Estimated
Mon 07:39:00 PM 50.0722 83.6168 134° Southeast  Level Estimated
Mon 07:40:00 PM 49.9834 83.7579 134° Southeast  Level Estimated
Mon 07:41:00 PM 49.8943 83.8986 134° Southeast  Level Estimated
Mon 07:42:00 PM 49.8051 84.0387 135° Southeast  Level Estimated
Mon 07:43:00 PM 49.7157 84.1783 135° Southeast  Level Estimated
Mon 07:44:00 PM 49.6262 84.3174 135° Southeast  Level Estimated
Mon 07:45:00 PM 49.5365 84.4560 135° Southeast  Level Estimated
Mon 07:46:00 PM 49.4466 84.5941 135° Southeast  Level Estimated
Mon 07:47:00 PM 49.3566 84.7316 135° Southeast  Level Estimated
Mon 07:48:00 PM 49.2664 84.8687 135° Southeast  Level Estimated
Mon 07:49:00 PM 49.1760 85.0053 135° Southeast  Level Estimated
Mon 07:50:00 PM 49.0855 85.1413 135° Southeast  Level Estimated
Mon 07:51:00 PM 48.9948 85.2769 136° Southeast  Level Estimated
Mon 07:52:00 PM 48.9039 85.4120 136° Southeast  Level Estimated
Mon 07:53:00 PM 48.8129 85.5466 136° Southeast  Level Estimated
Mon 07:54:00 PM 48.7218 85.6807 136° Southeast  Level Estimated
Mon 07:55:00 PM 48.6305 85.8143 136° Southeast  Level Estimated
Mon 07:56:00 PM 48.5390 85.9474 136° Southeast  Level Estimated
Mon 07:57:00 PM 48.4474 86.0801 136° Southeast  Level Estimated
Mon 07:58:00 PM 48.3556 86.2122 136° Southeast  Level Estimated
Mon 07:59:00 PM 48.2637 86.3439 136° Southeast  Level Estimated
Mon 08:00:00 PM 48.1716 86.4752 136° Southeast  Level Estimated
Mon 08:01:00 PM 48.0794 86.6059 137° Southeast  Level Estimated
Mon 08:02:00 PM 47.9870 86.7362 137° Southeast  Level Estimated
Mon 08:03:00 PM 47.8945 86.8660 137° Southeast  Level Estimated
Mon 08:04:00 PM 47.8019 86.9954 137° Southeast  Level Estimated
Mon 08:05:00 PM 47.7091 87.1243 137° Southeast  Level Estimated
Mon 08:06:00 PM 47.6161 87.2527 137° Southeast  Level Estimated
Mon 08:07:00 PM 47.5230 87.3807 137° Southeast  Level Estimated
Mon 08:08:00 PM 47.4298 87.5082 137° Southeast  Level Estimated
Mon 08:09:00 PM 47.3364 87.6353 137° Southeast  Level Estimated
Mon 08:10:00 PM 47.2429 87.7619 137° Southeast  Level Estimated
Mon 08:11:00 PM 47.1492 87.8881 137° Southeast  Level Estimated
Mon 08:12:00 PM 47.0555 88.0138 138° Southeast  Level Estimated
Mon 08:13:00 PM 46.9615 88.1391 138° Southeast  Level Estimated
Mon 08:14:00 PM 46.8675 88.2640 138° Southeast  Level Estimated
Mon 08:15:00 PM 46.7733 88.3884 138° Southeast  Level Estimated
Mon 08:16:00 PM 46.6789 88.5124 138° Southeast  Level Estimated
Mon 08:17:00 PM 46.5844 88.6359 138° Southeast  Level Estimated
Mon 08:18:00 PM 46.4898 88.7590 138° Southeast  Level Estimated
Mon 08:19:00 PM 46.3951 88.8817 138° Southeast  Level Estimated
Mon 08:20:00 PM 46.3003 89.0040 138° Southeast  Level Estimated
Mon 08:21:00 PM 46.2053 89.1258 138° Southeast  Level Estimated
Mon 08:22:00 PM 46.1101 89.2472 138° Southeast  Level Estimated
Mon 08:23:00 PM 46.0149 89.3682 139° Southeast  Level Estimated
Mon 08:24:00 PM 45.9195 89.4888 139° Southeast  Level Estimated
Mon 08:25:00 PM 45.8240 89.6090 139° Southeast  Level Estimated
Mon 08:26:00 PM 45.7284 89.7288 139° Southeast  Level Estimated
Mon 08:27:00 PM 45.6326 89.8481 139° Southeast  Level Estimated
Mon 08:28:00 PM 45.5368 89.9670 139° Southeast  Level Estimated
Mon 08:29:00 PM 45.4408 90.0856 139° Southeast  Level Estimated
Mon 08:30:00 PM 45.3446 90.2037 139° Southeast  Level Estimated
Mon 08:31:00 PM 45.2484 90.3215 139° Southeast  Level Estimated
Mon 08:32:00 PM 45.1520 90.4388 139° Southeast  Level Estimated
Mon 08:33:00 PM 45.0555 90.5557 139° Southeast  Level Estimated
Mon 08:34:00 PM 44.9589 90.6723 139° Southeast  Level Estimated
Mon 08:35:00 PM 44.8622 90.7884 140° Southeast  Level Estimated
Mon 08:36:00 PM 44.7654 90.9042 140° Southeast  Level Estimated
Mon 08:37:00 PM 44.6684 91.0196 140° Southeast  Level Estimated
Mon 08:38:00 PM 44.5714 91.1346 140° Southeast  Level Estimated
Mon 08:39:00 PM 44.4742 91.2492 140° Southeast  Level Estimated
Mon 08:40:00 PM 44.3769 91.3634 140° Southeast  Level Estimated
Mon 08:41:00 PM 44.2794 91.4772 140° Southeast  Level Estimated
Mon 08:42:00 PM 44.1819 91.5907 140° Southeast  Level Estimated
Mon 08:43:00 PM 44.0843 91.7038 140° Southeast  Level Estimated
Mon 08:44:00 PM 43.9865 91.8165 140° Southeast  Level Estimated
Mon 08:45:00 PM 43.8887 91.9289 140° Southeast  Level Estimated
Mon 08:46:00 PM 43.7907 92.0409 140° Southeast  Level Estimated
Mon 08:47:00 PM 43.6926 92.1525 141° Southeast  Level Estimated
Mon 08:48:00 PM 43.5944 92.2637 141° Southeast  Level Estimated
Mon 08:49:00 PM 43.4961 92.3746 141° Southeast  Level Estimated
Mon 08:50:00 PM 43.3977 92.4851 141° Southeast  Level Estimated
Mon 08:51:00 PM 43.2992 92.5953 141° Southeast  Level Estimated
Mon 08:52:00 PM 43.2006 92.7051 141° Southeast  Level Estimated
Mon 08:53:00 PM 43.1019 92.8146 141° Southeast  Level Estimated
Mon 08:54:00 PM 43.0031 92.9237 141° Southeast  Level Estimated
Mon 08:55:00 PM 42.9042 93.0324 141° Southeast  Level Estimated
Mon 08:56:00 PM 42.8051 93.1408 141° Southeast  Level Estimated
Mon 08:57:00 PM 42.7060 93.2489 141° Southeast  Level Estimated
Mon 08:58:00 PM 42.6068 93.3566 141° Southeast  Level Estimated
Mon 08:59:00 PM 42.5074 93.4640 141° Southeast  Level Estimated
Mon 09:00:00 PM 42.4080 93.5710 142° Southeast  Level Estimated
Mon 09:01:00 PM 42.3085 93.6777 142° Southeast  Level Estimated
Mon 09:02:00 PM 42.2089 93.7840 142° Southeast  Level Estimated
Mon 09:03:00 PM 42.1091 93.8901 142° Southeast  Level Estimated
Mon 09:04:00 PM 42.0093 93.9958 142° Southeast  Level Estimated
Mon 09:05:00 PM 41.9094 94.1011 142° Southeast  Level Estimated
Mon 09:06:00 PM 41.8094 94.2061 142° Southeast  Level Estimated
Mon 09:07:00 PM 41.7093 94.3108 142° Southeast  Level Estimated
Mon 09:08:00 PM 41.6090 94.4152 142° Southeast  Level Estimated
Mon 09:09:00 PM 41.5087 94.5192 142° Southeast  Level Estimated
Mon 09:10:00 PM 41.4084 94.6230 142° Southeast  Level Estimated
Mon 09:11:00 PM 41.3079 94.7264 142° Southeast  Level Estimated
Mon 09:12:00 PM 41.2073 94.8295 142° Southeast  Level Estimated
Mon 09:13:00 PM 41.1066 94.9322 142° Southeast  Level Estimated
Mon 09:14:00 PM 41.0059 95.0347 142° Southeast  Level Estimated
Mon 09:15:00 PM 40.9050 95.1368 143° Southeast  Level Estimated
Mon 09:16:00 PM 40.8041 95.2387 143° Southeast  Level Estimated
Mon 09:17:00 PM 40.7030 95.3402 143° Southeast  Level Estimated
Mon 09:18:00 PM 40.6019 95.4414 143° Southeast  Level Estimated
Mon 09:19:00 PM 40.5007 95.5423 143° Southeast  Level Estimated
Mon 09:20:00 PM 40.3994 95.6429 143° Southeast  Level Estimated
Mon 09:21:00 PM 40.2980 95.7432 143° Southeast  Level Estimated
Mon 09:22:00 PM 40.1965 95.8432 143° Southeast  Level Estimated
Mon 09:23:00 PM 40.0950 95.9429 143° Southeast  Level Estimated
Mon 09:24:00 PM 39.9934 96.0423 143° Southeast  Level Estimated
Mon 09:25:00 PM 39.8916 96.1414 143° Southeast  Level Estimated
Mon 09:26:00 PM 39.7898 96.2403 143° Southeast  Level Estimated
Mon 09:27:00 PM 39.6879 96.3388 143° Southeast  Level Estimated
Mon 09:28:00 PM 39.5859 96.4370 143° Southeast  Level Estimated
Mon 09:29:00 PM 39.4839 96.5350 143° Southeast  Level Estimated
Mon 09:30:00 PM 39.3817 96.6326 144° Southeast  Level Estimated
Mon 09:31:00 PM 39.2795 96.7300 144° Southeast  Level Estimated
Mon 09:32:00 PM 39.1772 96.8271 144° Southeast  Level Estimated
Mon 09:33:00 PM 39.0748 96.9239 144° Southeast  Level Estimated
Mon 09:34:00 PM 38.9724 97.0204 144° Southeast  Level Estimated
Mon 09:35:00 PM 38.8698 97.1167 144° Southeast  Level Estimated
Mon 09:36:00 PM 38.7672 97.2126 144° Southeast  Level Estimated
Mon 09:37:00 PM 38.6645 97.3083 144° Southeast  Level Estimated
Mon 09:38:00 PM 38.5617 97.4037 144° Southeast  Level Estimated
Mon 09:39:00 PM 38.4589 97.4989 144° Southeast  Level Estimated
Mon 09:40:00 PM 38.3560 97.5938 144° Southeast  Level Estimated
Mon 09:41:00 PM 38.2529 97.6884 144° Southeast  Level Estimated
Mon 09:42:00 PM 38.1499 97.7827 144° Southeast  Level Estimated
Mon 09:43:00 PM 38.0467 97.8768 144° Southeast  Level Estimated
Mon 09:44:00 PM 37.9435 97.9706 144° Southeast  Level Estimated
Mon 09:45:00 PM 37.8402 98.0641 144° Southeast  Level Estimated
Mon 09:46:00 PM 37.7368 98.1574 144° Southeast  Level Estimated
Mon 09:47:00 PM 37.6333 98.2504 145° Southeast  Level Estimated
Mon 09:48:00 PM 37.5298 98.3432 145° Southeast  Level Estimated
Mon 09:49:00 PM 37.4262 98.4357 145° Southeast  Level Estimated
Mon 09:50:00 PM 37.3225 98.5279 145° Southeast  Level Estimated
Mon 09:51:00 PM 37.2188 98.6199 145° Southeast  Level Estimated
Mon 09:52:00 PM 37.1150 98.7117 145° Southeast  Level Estimated
Mon 09:53:00 PM 37.0111 98.8032 145° Southeast  Level Estimated
Mon 09:54:00 PM 36.9072 98.8944 145° Southeast  Level Estimated
Mon 09:55:00 PM 36.8031 98.9854 145° Southeast  Level Estimated
Mon 09:56:00 PM 36.6990 99.0761 145° Southeast  Level Estimated
Mon 09:57:00 PM 36.5949 99.1666 145° Southeast  Level Estimated
Mon 09:58:00 PM 36.4907 99.2569 145° Southeast  Level Estimated
Mon 09:59:00 PM 36.3863 99.3469 145° Southeast  Level Estimated
Mon 10:00:00 PM 36.2820 99.4367 145° Southeast  Level Estimated
Mon 10:01:00 PM 36.1776 99.5262 145° Southeast  Level Estimated
Mon 10:02:00 PM 36.0731 99.6155 145° Southeast  Level Estimated
Mon 10:03:00 PM 35.9685 99.7046 145° Southeast  Level Estimated
Mon 10:04:00 PM 35.8639 99.7934 145° Southeast  Level Estimated
Mon 10:05:00 PM 35.7592 99.8820 146° Southeast  Level Estimated
Mon 10:06:00 PM 35.6544 99.9703 146° Southeast  Level Estimated
Mon 10:07:00 PM 35.5496 100.0584 146° Southeast  Level Estimated
Mon 10:08:00 PM 35.4447 100.1463 146° Southeast  Level Estimated
Mon 10:09:00 PM 35.3397 100.2340 146° Southeast  Level Estimated
Mon 10:10:00 PM 35.2347 100.3214 146° Southeast  Level Estimated
Mon 10:11:00 PM 35.1297 100.4087 146° Southeast  Level Estimated
Mon 10:12:00 PM 35.0245 100.4956 146° Southeast  Level Estimated
Mon 10:13:00 PM 34.9193 100.5824 146° Southeast  Level Estimated
Mon 10:14:00 PM 34.8140 100.6689 146° Southeast  Level Estimated
Mon 10:15:00 PM 34.7087 100.7553 146° Southeast  Level Estimated
Mon 10:16:00 PM 34.6033 100.8414 146° Southeast  Level Estimated
Mon 10:17:00 PM 34.4979 100.9272 146° Southeast  Level Estimated
Mon 10:18:00 PM 34.3924 101.0129 146° Southeast  Level Estimated
Mon 10:19:00 PM 34.2868 101.0984 146° Southeast  Level Estimated
Mon 10:20:00 PM 34.1812 101.1836 146° Southeast  Level Estimated
Mon 10:21:00 PM 34.0755 101.2686 146° Southeast  Level Estimated
Mon 10:22:00 PM 33.9698 101.3534 146° Southeast  Level Estimated
Mon 10:23:00 PM 33.8640 101.4380 146° Southeast  Level Estimated
Mon 10:24:00 PM 33.7581 101.5224 146° Southeast  Level Estimated
Mon 10:25:00 PM 33.6522 101.6066 147° Southeast  Level Estimated
Mon 10:26:00 PM 33.5462 101.6906 147° Southeast  Level Estimated
Mon 10:27:00 PM 33.4402 101.7743 147° Southeast  Level Estimated
Mon 10:28:00 PM 33.3341 101.8579 147° Southeast  Level Estimated
Mon 10:29:00 PM 33.2280 101.9412 147° Southeast  Level Estimated
Mon 10:30:00 PM 33.1218 102.0244 147° Southeast  Level Estimated
Mon 10:31:00 PM 33.0155 102.1074 147° Southeast  Level Estimated
Mon 10:32:00 PM 32.9092 102.1901 147° Southeast  Level Estimated
Mon 10:33:00 PM 32.8029 102.2727 147° Southeast  Level Estimated
Mon 10:34:00 PM 32.6965 102.3550 147° Southeast  Level Estimated
Mon 10:35:00 PM 32.5900 102.4372 147° Southeast  Level Estimated
Mon 10:36:00 PM 32.4835 102.5192 147° Southeast  Level Estimated
Mon 10:37:00 PM 32.3769 102.6009 147° Southeast  Level Estimated
Mon 10:38:00 PM 32.2703 102.6825 147° Southeast  Level Estimated
Mon 10:39:00 PM 32.1636 102.7639 147° Southeast  Level Estimated
Mon 10:40:00 PM 32.0569 102.8451 147° Southeast  Level Estimated
Mon 10:41:00 PM 31.9501 102.9261 147° Southeast  Level Estimated
Mon 10:42:00 PM 31.8433 103.0069 147° Southeast  Level Estimated
Mon 10:43:00 PM 31.7364 103.0876 147° Southeast  Level Estimated
Mon 10:44:00 PM 31.6294 103.1680 147° Southeast  Level Estimated
Mon 10:45:00 PM 31.5225 103.2483 147° Southeast  Level Estimated
Mon 10:46:00 PM 31.4154 103.3284 147° Southeast  Level Estimated
Mon 10:47:00 PM 31.3083 103.4083 147° Southeast  Level Estimated
Mon 10:48:00 PM 31.2012 103.4880 148° Southeast  Level Estimated
Mon 10:49:00 PM 31.0940 103.5675 148° Southeast  Level Estimated
Mon 10:50:00 PM 30.9868 103.6469 148° Southeast  Level Estimated
Mon 10:51:00 PM 30.8795 103.7261 148° Southeast  Level Estimated
Mon 10:52:00 PM 30.7722 103.8051 148° Southeast  Level Estimated
Mon 10:53:00 PM 30.6648 103.8839 148° Southeast  Level Estimated
Mon 10:54:00 PM 30.5785 103.9471 148° Southeast  Level Estimated
Mon 10:55:00 PM 30.5785 103.9471 North  Level Estimated
Mon 10:56:00 PM 30.5785 103.9471 North  Level Estimated
Mon 10:57:00 PM 30.5785 103.9471 North  Level Estimated
Mon 10:58:00 PM 30.5785 103.9471 North  Level Estimated
Mon 10:59:00 PM 30.5785 103.9471 North  Level Estimated
Mon 11:00:00 PM 30.5785 103.9471 North  Level Estimated
Mon 11:01:00 PM 30.5785 103.9471 North  Level Estimated
Mon 11:02:00 PM 30.5785 103.9471 North  Level Estimated
Mon 11:03:00 PM 30.5785 103.9471 North  Level Estimated
Mon 11:04:00 PM 30.5785 103.9471 North  Level Estimated
Mon 11:05:00 PM 30.5785 103.9471 North  Level Estimated
Mon 11:06:00 PM 30.5785 103.9471 North  Level Estimated

Login

Don't have an account? Register now (free) for customized features, flight alerts, and more!